Ana Sayfa
METAR-TAF:

METAR-TAF

Havaalanları :

Akra, Gana

Enlem: 05-36N, Boylam: 000-10W, yükseklik: 68 m

Güncel hava durumu gözlemi

Rapor saat 04:00 UTC de 1 saat ve 22 dakika önce yapıldı.
Rüzgar batıdan 8 kt
Sıcaklık 27°C
Nem 94%
Basınç 1009 hPa
Görüş mesafesi 10 km veya daha fazla
1500 m altında bulut yok ve kümülonimbus yok

METAR: DGAA 290400Z 26008KT CAVOK 27/26 Q1009 NOSIG

Saat: 05:22 (05:22 UTC)

Tahmin

Rapor saat 23:00 UTC de 6 saat ve 22 dakika önce yapıldı.
Ayın 29'si saat 00 UTC'den ayın 01'si saat 06 UTC'ye kadar geçerli Tahmin
Rüzgar batıdan 6 kt
Görüş mesafesi 10 km veya daha fazla
1500 m altında bulut yok ve kümülonimbus yok
Olasılık 40%
ayın 29'si saat 06 UTC'den ayın 29'si saat 09 UTC'ye kadar
Görüş mesafesi: 3000 m
Pus
Dönüşüyor
ayın 29'si saat 11 UTC'den ayın 29'si saat 13 UTC'ye kadar
Rüzgar güneydan 15 kt
Görüş mesafesi: 8000 m

TAF: DGAA 282300Z 2900/0106 26006KT CAVOK PROB40 2906/2909 3000 BR BECMG 2911/2913 19015KT 8000

4.000'den fazla havaalanı için hava durumu gözlemleri ve tahminleri (METAR ve TAF raporları).

Kullanılabilir istasyonlar harita üzerinde sarı ve kırmızı noktalarla gösterilir.

İstasyonun adını görmek için fareyi noktanın üzerinde gezdirin.

Sonrasında hava gözlem ve tahminlerini görmek için tıklayın.

Haritayı değiştirmek için: yaklaştırmak için siyah artı işaretli yeşil düğmeye ve uzaklaştırmak için de eksi işaretli düğmeye hızla tıklayın; bitişik haritalar için yeşil okları kullanın.


METAR-TAF: